Nearby METAR Reports

 

NZWN - Wellington Intl, New Zealand
Distance from station: E 66km
Updated: 21/06/2024 22:00
Clear
Clear
 Wind from NNE
Wind: NNE 9 km/h
Temperature: 7°C
Wind Chill: 6°C
Dew Point: 5°C
Humidity: 87%
Barometer: 1024 hPa
Clouds: Clear
Visibility: 10 km
2024/06/21 10:00 NZWN 211000Z AUTO 03005KT 9999 NCD 07/05 Q1024
NZCH - Christchurch Int, New Zealand
Distance from station: SSW 270km
Updated: 21/06/2024 22:00
Clear
Clear
 Wind from NE
Wind: NE 13 km/h
Temperature: 5°C
Wind Chill: 2°C
Dew Point: 4°C
Humidity: 93%
Barometer: 1021 hPa
Clouds: Clear
Visibility: 10 km
2024/06/21 10:00 NZCH 211000Z AUTO 04007KT 9999 NCD 05/04 Q1021